Terminal Aerodrome Forecast
Issued by NWS

Home | Current Version | Previous Version | Text Only | Print | Product List | Glossary Off
Versions: 1 2 3 4 5 6 7 8 9 10 11 12 13 14 15 16 17 18 19 20 21 22 23 24 25 26

228
FTUS43 KBIS 160930 AAB
TAFJMS
TAF AMD
KJMS 160930Z 1610/1706 15007KT 5SM -RA BR FEW007 OVC011
     FM161200 VRB03KT 2SM BR OVC005
     FM161500 34006KT P6SM OVC003
     FM162100 35011KT P6SM SCT045=

USA.gov is the U.S. government's official web portal to all federal, state and local government web resources and services.